sensor_id;sensor_type;location;lat;lon;timestamp;pressure;altitude;pressure_sealevel;temperature;humidity
37304;BME280;23188;51.188;16.374;2023-05-29T00:01:51;100526.05;;;10.73;92.19
37304;BME280;23188;51.188;16.374;2023-05-29T00:05:54;100530.64;;;10.62;91.93
37304;BME280;23188;51.188;16.374;2023-05-29T00:09:58;100530.90;;;10.52;91.24
37304;BME280;23188;51.188;16.374;2023-05-29T00:14:26;100525.06;;;10.47;91.35
37304;BME280;23188;51.188;16.374;2023-05-29T00:18:29;100523.18;;;10.46;91.75
37304;BME280;23188;51.188;16.374;2023-05-29T00:22:37;100517.14;;;10.44;91.40
37304;BME280;23188;51.188;16.374;2023-05-29T00:26:40;100514.83;;;10.41;91.36
37304;BME280;23188;51.188;16.374;2023-05-29T00:30:43;100514.59;;;10.37;90.95
37304;BME280;23188;51.188;16.374;2023-05-29T00:34:48;100513.31;;;10.33;91.03
37304;BME280;23188;51.188;16.374;2023-05-29T00:38:52;100516.02;;;10.26;90.87
37304;BME280;23188;51.188;16.374;2023-05-29T00:42:55;100508.90;;;10.16;90.80
37304;BME280;23188;51.188;16.374;2023-05-29T00:46:58;100510.33;;;10.02;91.66
37304;BME280;23188;51.188;16.374;2023-05-29T00:51:27;100508.73;;;9.83;90.22
37304;BME280;23188;51.188;16.374;2023-05-29T00:55:30;100508.08;;;9.54;92.28
37304;BME280;23188;51.188;16.374;2023-05-29T00:59:33;100507.10;;;9.40;92.28
37304;BME280;23188;51.188;16.374;2023-05-29T01:03:41;100509.23;;;9.36;92.29
37304;BME280;23188;51.188;16.374;2023-05-29T01:07:44;100508.63;;;9.27;92.74
37304;BME280;23188;51.188;16.374;2023-05-29T01:21:44;100493.86;;;9.40;96.28
37304;BME280;23188;51.188;16.374;2023-05-29T01:29:32;100488.49;;;9.48;94.85
37304;BME280;23188;51.188;16.374;2023-05-29T01:33:40;100490.48;;;9.52;93.44
37304;BME280;23188;51.188;16.374;2023-05-29T01:37:43;100488.55;;;9.50;92.79
37304;BME280;23188;51.188;16.374;2023-05-29T01:41:47;100491.66;;;9.46;92.87
37304;BME280;23188;51.188;16.374;2023-05-29T01:45:50;100494.91;;;9.38;92.76
37304;BME280;23188;51.188;16.374;2023-05-29T01:49:53;100498.83;;;9.35;93.38
37304;BME280;23188;51.188;16.374;2023-05-29T01:53:58;100501.10;;;9.31;93.43
37304;BME280;23188;51.188;16.374;2023-05-29T02:00:23;100501.85;;;9.27;93.25
37304;BME280;23188;51.188;16.374;2023-05-29T02:04:26;100497.21;;;9.06;92.40
37304;BME280;23188;51.188;16.374;2023-05-29T02:08:30;100492.12;;;9.03;92.35
37304;BME280;23188;51.188;16.374;2023-05-29T02:12:33;100495.27;;;8.98;92.30
37304;BME280;23188;51.188;16.374;2023-05-29T02:16:36;100495.25;;;8.93;92.73
37304;BME280;23188;51.188;16.374;2023-05-29T02:20:39;100495.46;;;8.95;92.96
37304;BME280;23188;51.188;16.374;2023-05-29T02:24:42;100494.16;;;8.96;92.92
37304;BME280;23188;51.188;16.374;2023-05-29T02:33:41;100497.09;;;8.85;92.57
37304;BME280;23188;51.188;16.374;2023-05-29T02:37:49;100499.66;;;8.84;93.38
37304;BME280;23188;51.188;16.374;2023-05-29T02:41:53;100501.27;;;8.81;94.42
37304;BME280;23188;51.188;16.374;2023-05-29T02:46:01;100498.85;;;8.78;95.32
37304;BME280;23188;51.188;16.374;2023-05-29T02:54:59;100505.73;;;8.60;98.46
37304;BME280;23188;51.188;16.374;2023-05-29T02:59:02;100506.82;;;8.55;96.75
37304;BME280;23188;51.188;16.374;2023-05-29T03:03:05;100506.04;;;8.51;96.62
37304;BME280;23188;51.188;16.374;2023-05-29T03:07:08;100511.55;;;8.50;97.69
37304;BME280;23188;51.188;16.374;2023-05-29T03:16:18;100513.02;;;8.55;97.37
37304;BME280;23188;51.188;16.374;2023-05-29T03:20:24;100514.08;;;8.67;97.16
37304;BME280;23188;51.188;16.374;2023-05-29T03:24:27;100513.54;;;8.77;96.85
37304;BME280;23188;51.188;16.374;2023-05-29T03:28:39;100522.42;;;8.90;98.75
37304;BME280;23188;51.188;16.374;2023-05-29T03:32:42;100523.15;;;8.99;100.00
37304;BME280;23188;51.188;16.374;2023-05-29T03:36:46;100522.52;;;9.10;100.00
37304;BME280;23188;51.188;16.374;2023-05-29T03:45:43;100527.04;;;9.37;100.00
37304;BME280;23188;51.188;16.374;2023-05-29T03:49:54;100531.46;;;9.36;100.00
37304;BME280;23188;51.188;16.374;2023-05-29T03:53:58;100532.79;;;9.16;100.00
37304;BME280;23188;51.188;16.374;2023-05-29T03:58:01;100533.66;;;9.25;100.00
37304;BME280;23188;51.188;16.374;2023-05-29T04:02:07;100538.01;;;9.24;100.00
37304;BME280;23188;51.188;16.374;2023-05-29T04:06:10;100542.00;;;9.10;100.00
37304;BME280;23188;51.188;16.374;2023-05-29T04:10:14;100546.98;;;9.08;100.00
37304;BME280;23188;51.188;16.374;2023-05-29T04:14:18;100545.52;;;9.45;100.00
37304;BME280;23188;51.188;16.374;2023-05-29T04:18:24;100550.29;;;9.99;100.00
37304;BME280;23188;51.188;16.374;2023-05-29T04:22:29;100550.27;;;10.47;100.00
37304;BME280;23188;51.188;16.374;2023-05-29T04:31:36;100556.20;;;11.58;98.50
37304;BME280;23188;51.188;16.374;2023-05-29T04:35:41;100560.88;;;12.21;97.01
37304;BME280;23188;51.188;16.374;2023-05-29T04:39:48;100555.88;;;13.09;95.21
37304;BME280;23188;51.188;16.374;2023-05-29T04:43:52;100554.41;;;13.95;89.47
37304;BME280;23188;51.188;16.374;2023-05-29T04:47:54;100557.89;;;14.75;86.96
37304;BME280;23188;51.188;16.374;2023-05-29T04:51:58;100561.88;;;15.54;82.48
37304;BME280;23188;51.188;16.374;2023-05-29T04:56:04;100551.86;;;16.17;79.16
37304;BME280;23188;51.188;16.374;2023-05-29T05:05:28;100549.33;;;17.26;74.79
37304;BME280;23188;51.188;16.374;2023-05-29T05:09:31;100550.23;;;17.83;72.49
37304;BME280;23188;51.188;16.374;2023-05-29T05:13:34;100546.91;;;18.14;70.34
37304;BME280;23188;51.188;16.374;2023-05-29T05:17:37;100548.48;;;18.21;69.96
37304;BME280;23188;51.188;16.374;2023-05-29T05:21:40;100550.99;;;18.34;69.89
37304;BME280;23188;51.188;16.374;2023-05-29T05:25:44;100549.69;;;18.65;69.23
37304;BME280;23188;51.188;16.374;2023-05-29T05:29:47;100551.07;;;18.76;68.11
37304;BME280;23188;51.188;16.374;2023-05-29T05:33:50;100553.76;;;18.89;68.10
37304;BME280;23188;51.188;16.374;2023-05-29T05:37:53;100557.36;;;19.11;67.68
37304;BME280;23188;51.188;16.374;2023-05-29T05:41:56;100559.24;;;19.34;67.39
37304;BME280;23188;51.188;16.374;2023-05-29T05:45:59;100562.47;;;19.42;67.50
37304;BME280;23188;51.188;16.374;2023-05-29T05:50:04;100562.13;;;19.55;67.41
37304;BME280;23188;51.188;16.374;2023-05-29T05:54:11;100569.09;;;19.52;67.11
37304;BME280;23188;51.188;16.374;2023-05-29T05:58:14;100570.20;;;19.45;66.86
37304;BME280;23188;51.188;16.374;2023-05-29T06:02:19;100570.36;;;19.24;68.06
37304;BME280;23188;51.188;16.374;2023-05-29T06:06:21;100573.76;;;19.15;69.11
37304;BME280;23188;51.188;16.374;2023-05-29T06:10:24;100571.83;;;18.99;69.09
37304;BME280;23188;51.188;16.374;2023-05-29T06:14:28;100572.65;;;19.05;70.58
37304;BME280;23188;51.188;16.374;2023-05-29T06:18:30;100570.96;;;19.15;69.74
37304;BME280;23188;51.188;16.374;2023-05-29T06:22:33;100572.16;;;19.27;69.73
37304;BME280;23188;51.188;16.374;2023-05-29T06:26:36;100572.67;;;19.66;68.87
37304;BME280;23188;51.188;16.374;2023-05-29T06:30:40;100567.89;;;20.06;68.48
37304;BME280;23188;51.188;16.374;2023-05-29T06:34:45;100573.85;;;20.08;66.54
37304;BME280;23188;51.188;16.374;2023-05-29T06:38:47;100576.84;;;20.00;66.70
37304;BME280;23188;51.188;16.374;2023-05-29T06:42:55;100577.23;;;20.28;66.06
37304;BME280;23188;51.188;16.374;2023-05-29T06:46:58;100580.52;;;20.35;65.35
37304;BME280;23188;51.188;16.374;2023-05-29T06:51:02;100580.25;;;20.63;66.35
37304;BME280;23188;51.188;16.374;2023-05-29T06:55:14;100578.80;;;20.80;66.31
37304;BME280;23188;51.188;16.374;2023-05-29T06:59:17;100583.54;;;20.72;66.55
37304;BME280;23188;51.188;16.374;2023-05-29T07:03:20;100582.61;;;20.77;68.00
37304;BME280;23188;51.188;16.374;2023-05-29T07:07:24;100582.31;;;21.02;67.53
37304;BME280;23188;51.188;16.374;2023-05-29T07:11:27;100584.66;;;21.05;63.91
37304;BME280;23188;51.188;16.374;2023-05-29T07:15:30;100586.48;;;21.18;66.78
37304;BME280;23188;51.188;16.374;2023-05-29T07:19:33;100585.27;;;21.38;65.42
37304;BME280;23188;51.188;16.374;2023-05-29T07:23:36;100591.01;;;21.55;62.19
37304;BME280;23188;51.188;16.374;2023-05-29T07:28:08;100592.41;;;21.85;61.12
37304;BME280;23188;51.188;16.374;2023-05-29T07:32:24;100594.34;;;22.17;58.46
37304;BME280;23188;51.188;16.374;2023-05-29T07:36:30;100593.35;;;22.42;59.98
37304;BME280;23188;51.188;16.374;2023-05-29T07:40:36;100592.66;;;22.67;58.61
37304;BME280;23188;51.188;16.374;2023-05-29T07:44:42;100589.41;;;22.96;58.47
37304;BME280;23188;51.188;16.374;2023-05-29T07:48:45;100586.08;;;23.16;54.98
37304;BME280;23188;51.188;16.374;2023-05-29T07:52:51;100586.16;;;23.21;54.87
37304;BME280;23188;51.188;16.374;2023-05-29T07:56:56;100589.02;;;23.44;54.44
37304;BME280;23188;51.188;16.374;2023-05-29T08:00:59;100593.71;;;23.70;54.96
37304;BME280;23188;51.188;16.374;2023-05-29T08:05:03;100600.64;;;23.84;54.35
37304;BME280;23188;51.188;16.374;2023-05-29T08:09:06;100602.20;;;23.73;52.63
37304;BME280;23188;51.188;16.374;2023-05-29T08:13:09;100604.67;;;23.72;53.70
37304;BME280;23188;51.188;16.374;2023-05-29T08:17:12;100600.60;;;23.89;54.61
37304;BME280;23188;51.188;16.374;2023-05-29T08:21:21;100606.77;;;23.93;54.09
37304;BME280;23188;51.188;16.374;2023-05-29T08:25:24;100602.98;;;23.98;53.55
37304;BME280;23188;51.188;16.374;2023-05-29T08:29:26;100597.92;;;24.06;52.56
37304;BME280;23188;51.188;16.374;2023-05-29T08:33:29;100595.81;;;24.19;54.13
37304;BME280;23188;51.188;16.374;2023-05-29T08:37:33;100595.98;;;24.33;52.40
37304;BME280;23188;51.188;16.374;2023-05-29T08:46:02;100594.81;;;24.23;50.22
37304;BME280;23188;51.188;16.374;2023-05-29T08:50:09;100594.13;;;24.51;49.55
37304;BME280;23188;51.188;16.374;2023-05-29T08:54:14;100591.73;;;24.62;50.97
37304;BME280;23188;51.188;16.374;2023-05-29T08:58:21;100584.98;;;24.72;52.28
37304;BME280;23188;51.188;16.374;2023-05-29T09:02:25;100583.74;;;24.56;50.98
37304;BME280;23188;51.188;16.374;2023-05-29T09:06:30;100584.59;;;24.45;49.52
37304;BME280;23188;51.188;16.374;2023-05-29T09:10:34;100580.86;;;24.59;48.91
37304;BME280;23188;51.188;16.374;2023-05-29T09:14:41;100581.63;;;24.75;47.19
37304;BME280;23188;51.188;16.374;2023-05-29T09:18:45;100583.52;;;24.86;44.24
37304;BME280;23188;51.188;16.374;2023-05-29T09:27:02;100588.14;;;24.91;43.31
37304;BME280;23188;51.188;16.374;2023-05-29T09:31:15;100583.94;;;24.94;42.37
37304;BME280;23188;51.188;16.374;2023-05-29T09:35:23;100580.90;;;24.88;42.49
37304;BME280;23188;51.188;16.374;2023-05-29T09:39:27;100584.90;;;24.93;42.93
37304;BME280;23188;51.188;16.374;2023-05-29T09:43:30;100585.50;;;25.01;44.02
37304;BME280;23188;51.188;16.374;2023-05-29T09:47:39;100585.14;;;24.98;42.28
37304;BME280;23188;51.188;16.374;2023-05-29T09:51:45;100580.67;;;24.96;43.81
37304;BME280;23188;51.188;16.374;2023-05-29T09:55:52;100582.41;;;25.01;43.73
37304;BME280;23188;51.188;16.374;2023-05-29T09:59:56;100583.14;;;24.98;42.25
37304;BME280;23188;51.188;16.374;2023-05-29T10:03:59;100580.78;;;24.90;42.18
37304;BME280;23188;51.188;16.374;2023-05-29T10:08:07;100582.77;;;24.72;43.04
37304;BME280;23188;51.188;16.374;2023-05-29T10:12:12;100577.70;;;24.67;44.98
37304;BME280;23188;51.188;16.374;2023-05-29T10:16:23;100575.35;;;24.73;44.76
37304;BME280;23188;51.188;16.374;2023-05-29T10:20:28;100580.58;;;24.74;44.89
37304;BME280;23188;51.188;16.374;2023-05-29T10:24:33;100574.82;;;24.73;42.46
37304;BME280;23188;51.188;16.374;2023-05-29T10:28:40;100569.55;;;24.78;43.32
37304;BME280;23188;51.188;16.374;2023-05-29T10:33:01;100569.14;;;24.87;45.68
37304;BME280;23188;51.188;16.374;2023-05-29T10:41:35;100569.55;;;24.65;43.38
37304;BME280;23188;51.188;16.374;2023-05-29T10:49:50;100569.00;;;24.78;45.12
37304;BME280;23188;51.188;16.374;2023-05-29T10:53:56;100565.55;;;24.84;42.58
37304;BME280;23188;51.188;16.374;2023-05-29T10:58:05;100567.35;;;24.85;41.96
37304;BME280;23188;51.188;16.374;2023-05-29T11:02:08;100568.11;;;24.97;43.40
37304;BME280;23188;51.188;16.374;2023-05-29T11:06:21;100559.50;;;24.96;43.86
37304;BME280;23188;51.188;16.374;2023-05-29T11:10:56;100555.50;;;24.88;44.73
37304;BME280;23188;51.188;16.374;2023-05-29T11:15:05;100551.71;;;24.83;45.85
37304;BME280;23188;51.188;16.374;2023-05-29T11:19:09;100544.98;;;24.75;44.16
37304;BME280;23188;51.188;16.374;2023-05-29T11:23:17;100539.87;;;24.71;44.01
37304;BME280;23188;51.188;16.374;2023-05-29T11:27:23;100540.67;;;24.66;45.99
37304;BME280;23188;51.188;16.374;2023-05-29T11:31:28;100545.89;;;24.57;46.99
37304;BME280;23188;51.188;16.374;2023-05-29T11:35:36;100552.14;;;24.53;46.02
37304;BME280;23188;51.188;16.374;2023-05-29T11:39:41;100549.86;;;24.55;44.72
37304;BME280;23188;51.188;16.374;2023-05-29T11:43:59;100551.68;;;24.70;44.62
37304;BME280;23188;51.188;16.374;2023-05-29T11:48:04;100547.15;;;24.80;43.20
37304;BME280;23188;51.188;16.374;2023-05-29T11:52:09;100544.96;;;24.94;42.89
37304;BME280;23188;51.188;16.374;2023-05-29T11:56:16;100550.69;;;25.08;44.54
37304;BME280;23188;51.188;16.374;2023-05-29T12:00:20;100540.98;;;25.26;41.46
37304;BME280;23188;51.188;16.374;2023-05-29T12:04:25;100533.75;;;25.30;43.37
37304;BME280;23188;51.188;16.374;2023-05-29T12:08:28;100530.94;;;25.32;44.67
37304;BME280;23188;51.188;16.374;2023-05-29T12:12:31;100528.27;;;25.44;45.45
37304;BME280;23188;51.188;16.374;2023-05-29T12:16:35;100526.64;;;25.53;41.86
37304;BME280;23188;51.188;16.374;2023-05-29T12:20:38;100528.40;;;25.79;42.71
37304;BME280;23188;51.188;16.374;2023-05-29T12:24:42;100526.71;;;25.86;44.50
37304;BME280;23188;51.188;16.374;2023-05-29T12:28:46;100518.27;;;25.94;44.08
37304;BME280;23188;51.188;16.374;2023-05-29T12:32:54;100517.16;;;25.92;43.02
37304;BME280;23188;51.188;16.374;2023-05-29T12:37:13;100512.30;;;25.79;44.67
37304;BME280;23188;51.188;16.374;2023-05-29T12:41:28;100515.48;;;25.69;44.46
37304;BME280;23188;51.188;16.374;2023-05-29T12:45:33;100508.15;;;25.90;46.30
37304;BME280;23188;51.188;16.374;2023-05-29T12:49:37;100511.92;;;26.04;45.45
37304;BME280;23188;51.188;16.374;2023-05-29T12:53:40;100508.11;;;26.13;44.01
37304;BME280;23188;51.188;16.374;2023-05-29T12:57:44;100501.97;;;26.10;44.34
37304;BME280;23188;51.188;16.374;2023-05-29T13:01:52;100497.94;;;26.08;45.33
37304;BME280;23188;51.188;16.374;2023-05-29T13:05:58;100497.49;;;25.96;45.10
37304;BME280;23188;51.188;16.374;2023-05-29T13:10:01;100492.79;;;26.01;45.87
37304;BME280;23188;51.188;16.374;2023-05-29T13:14:05;100486.14;;;26.20;44.98
37304;BME280;23188;51.188;16.374;2023-05-29T13:18:08;100488.35;;;26.50;46.81
37304;BME280;23188;51.188;16.374;2023-05-29T13:22:12;100482.48;;;26.46;43.41
37304;BME280;23188;51.188;16.374;2023-05-29T13:26:15;100480.16;;;26.31;45.49
37304;BME280;23188;51.188;16.374;2023-05-29T13:30:19;100476.57;;;26.20;44.67
37304;BME280;23188;51.188;16.374;2023-05-29T13:34:23;100475.05;;;26.05;46.90
37304;BME280;23188;51.188;16.374;2023-05-29T13:42:40;100469.71;;;25.90;45.41
37304;BME280;23188;51.188;16.374;2023-05-29T13:46:44;100464.11;;;25.93;46.99
37304;BME280;23188;51.188;16.374;2023-05-29T13:55:26;100461.20;;;26.27;46.39
37304;BME280;23188;51.188;16.374;2023-05-29T13:59:32;100451.80;;;26.27;44.57
37304;BME280;23188;51.188;16.374;2023-05-29T14:03:38;100451.36;;;26.34;43.33
37304;BME280;23188;51.188;16.374;2023-05-29T14:07:47;100452.77;;;26.36;44.62
37304;BME280;23188;51.188;16.374;2023-05-29T14:11:52;100448.67;;;26.30;44.78
37304;BME280;23188;51.188;16.374;2023-05-29T14:15:58;100449.80;;;26.35;44.58
37304;BME280;23188;51.188;16.374;2023-05-29T14:20:10;100451.71;;;26.19;46.18
37304;BME280;23188;51.188;16.374;2023-05-29T14:24:16;100449.26;;;26.03;47.27
37304;BME280;23188;51.188;16.374;2023-05-29T14:28:24;100454.95;;;25.86;45.96
37304;BME280;23188;51.188;16.374;2023-05-29T14:32:30;100452.91;;;25.64;47.38
37304;BME280;23188;51.188;16.374;2023-05-29T14:36:35;100450.48;;;25.59;47.92
37304;BME280;23188;51.188;16.374;2023-05-29T14:40:40;100457.82;;;25.60;48.73
37304;BME280;23188;51.188;16.374;2023-05-29T14:44:44;100456.61;;;25.50;49.97
37304;BME280;23188;51.188;16.374;2023-05-29T14:48:49;100454.57;;;25.42;50.54
37304;BME280;23188;51.188;16.374;2023-05-29T14:52:53;100457.96;;;25.29;51.45
37304;BME280;23188;51.188;16.374;2023-05-29T14:56:58;100455.02;;;24.95;51.64
37304;BME280;23188;51.188;16.374;2023-05-29T15:01:02;100459.20;;;24.80;53.02
37304;BME280;23188;51.188;16.374;2023-05-29T15:05:06;100455.30;;;24.78;55.50
37304;BME280;23188;51.188;16.374;2023-05-29T15:09:11;100455.71;;;24.83;51.26
37304;BME280;23188;51.188;16.374;2023-05-29T15:13:17;100449.95;;;24.96;50.70
37304;BME280;23188;51.188;16.374;2023-05-29T15:17:22;100453.55;;;24.96;49.21
37304;BME280;23188;51.188;16.374;2023-05-29T15:21:26;100452.83;;;24.82;49.68
37304;BME280;23188;51.188;16.374;2023-05-29T15:25:30;100453.86;;;24.65;51.51
37304;BME280;23188;51.188;16.374;2023-05-29T15:29:35;100448.02;;;24.40;51.97
37304;BME280;23188;51.188;16.374;2023-05-29T15:33:39;100449.38;;;24.30;53.81
37304;BME280;23188;51.188;16.374;2023-05-29T15:37:43;100451.55;;;24.32;56.14
37304;BME280;23188;51.188;16.374;2023-05-29T15:41:48;100447.37;;;24.29;54.02
37304;BME280;23188;51.188;16.374;2023-05-29T15:45:52;100450.34;;;24.10;55.56
37304;BME280;23188;51.188;16.374;2023-05-29T15:49:56;100450.13;;;23.94;57.13
37304;BME280;23188;51.188;16.374;2023-05-29T15:54:04;100449.55;;;23.94;55.71
37304;BME280;23188;51.188;16.374;2023-05-29T15:58:08;100451.45;;;23.95;54.79
37304;BME280;23188;51.188;16.374;2023-05-29T16:02:11;100452.47;;;23.93;53.90
37304;BME280;23188;51.188;16.374;2023-05-29T16:06:15;100450.67;;;23.83;52.76
37304;BME280;23188;51.188;16.374;2023-05-29T16:10:19;100449.85;;;23.84;54.72
37304;BME280;23188;51.188;16.374;2023-05-29T16:14:23;100453.09;;;23.94;56.75
37304;BME280;23188;51.188;16.374;2023-05-29T16:18:27;100454.19;;;23.98;54.54
37304;BME280;23188;51.188;16.374;2023-05-29T16:22:30;100449.25;;;23.91;52.97
37304;BME280;23188;51.188;16.374;2023-05-29T16:26:44;100448.67;;;23.78;54.07
37304;BME280;23188;51.188;16.374;2023-05-29T16:30:48;100458.90;;;23.61;52.68
37304;BME280;23188;51.188;16.374;2023-05-29T16:34:51;100453.47;;;23.44;53.23
37304;BME280;23188;51.188;16.374;2023-05-29T16:38:57;100456.45;;;23.36;55.25
37304;BME280;23188;51.188;16.374;2023-05-29T16:43:01;100456.42;;;23.21;55.13
37304;BME280;23188;51.188;16.374;2023-05-29T16:47:05;100455.58;;;23.06;55.83
37304;BME280;23188;51.188;16.374;2023-05-29T16:51:09;100455.99;;;22.94;56.62
37304;BME280;23188;51.188;16.374;2023-05-29T16:55:14;100458.53;;;22.79;56.96
37304;BME280;23188;51.188;16.374;2023-05-29T16:59:20;100453.75;;;22.70;57.86
37304;BME280;23188;51.188;16.374;2023-05-29T17:03:24;100457.78;;;22.59;58.13
37304;BME280;23188;51.188;16.374;2023-05-29T17:07:29;100463.49;;;22.52;57.83
37304;BME280;23188;51.188;16.374;2023-05-29T17:11:33;100458.85;;;22.44;58.17
37304;BME280;23188;51.188;16.374;2023-05-29T17:15:37;100454.48;;;22.41;58.65
37304;BME280;23188;51.188;16.374;2023-05-29T17:19:40;100458.34;;;22.35;59.52
37304;BME280;23188;51.188;16.374;2023-05-29T17:23:44;100459.85;;;22.22;59.34
37304;BME280;23188;51.188;16.374;2023-05-29T17:27:48;100463.60;;;22.06;58.20
37304;BME280;23188;51.188;16.374;2023-05-29T17:31:52;100459.88;;;21.85;58.75
37304;BME280;23188;51.188;16.374;2023-05-29T17:35:56;100470.81;;;21.65;60.02
37304;BME280;23188;51.188;16.374;2023-05-29T17:40:00;100467.48;;;21.44;61.17
37304;BME280;23188;51.188;16.374;2023-05-29T17:44:04;100472.05;;;21.19;61.09
37304;BME280;23188;51.188;16.374;2023-05-29T17:48:08;100470.52;;;21.01;61.80
37304;BME280;23188;51.188;16.374;2023-05-29T17:52:11;100472.93;;;20.84;63.53
37304;BME280;23188;51.188;16.374;2023-05-29T17:56:15;100478.77;;;20.64;64.34
37304;BME280;23188;51.188;16.374;2023-05-29T18:00:19;100475.48;;;20.46;64.16
37304;BME280;23188;51.188;16.374;2023-05-29T18:04:22;100483.89;;;20.34;64.40
37304;BME280;23188;51.188;16.374;2023-05-29T18:08:26;100487.59;;;20.26;65.06
37304;BME280;23188;51.188;16.374;2023-05-29T18:12:29;100487.89;;;20.18;65.63
37304;BME280;23188;51.188;16.374;2023-05-29T18:16:47;100492.31;;;20.10;66.00
37304;BME280;23188;51.188;16.374;2023-05-29T18:20:51;100494.09;;;20.05;65.72
37304;BME280;23188;51.188;16.374;2023-05-29T18:24:54;100494.88;;;19.99;65.73
37304;BME280;23188;51.188;16.374;2023-05-29T18:28:58;100493.84;;;19.92;66.31
37304;BME280;23188;51.188;16.374;2023-05-29T18:33:03;100500.59;;;19.82;65.98
37304;BME280;23188;51.188;16.374;2023-05-29T18:37:08;100505.11;;;19.75;66.09
37304;BME280;23188;51.188;16.374;2023-05-29T18:41:11;100511.20;;;19.64;66.52
37304;BME280;23188;51.188;16.374;2023-05-29T18:45:15;100514.23;;;19.50;66.74
37304;BME280;23188;51.188;16.374;2023-05-29T18:49:18;100515.39;;;19.37;67.04
37304;BME280;23188;51.188;16.374;2023-05-29T18:53:22;100526.28;;;19.27;66.44
37304;BME280;23188;51.188;16.374;2023-05-29T18:57:27;100525.09;;;19.17;66.28
37304;BME280;23188;51.188;16.374;2023-05-29T19:01:30;100528.52;;;19.06;66.00
37304;BME280;23188;51.188;16.374;2023-05-29T19:05:35;100527.16;;;18.95;66.31
37304;BME280;23188;51.188;16.374;2023-05-29T19:09:39;100528.02;;;18.79;66.58
37304;BME280;23188;51.188;16.374;2023-05-29T19:13:44;100529.20;;;18.65;67.06
37304;BME280;23188;51.188;16.374;2023-05-29T19:17:50;100529.05;;;18.53;67.88
37304;BME280;23188;51.188;16.374;2023-05-29T19:21:54;100528.10;;;18.35;67.97
37304;BME280;23188;51.188;16.374;2023-05-29T19:25:57;100534.95;;;18.20;68.46
37304;BME280;23188;51.188;16.374;2023-05-29T19:30:01;100535.92;;;17.99;70.14
37304;BME280;23188;51.188;16.374;2023-05-29T19:34:07;100546.21;;;17.77;73.38
37304;BME280;23188;51.188;16.374;2023-05-29T19:38:33;100556.27;;;17.41;74.35
37304;BME280;23188;51.188;16.374;2023-05-29T19:42:37;100561.70;;;17.14;76.38
37304;BME280;23188;51.188;16.374;2023-05-29T19:46:41;100563.98;;;16.93;76.30
37304;BME280;23188;51.188;16.374;2023-05-29T19:50:51;100570.35;;;16.85;75.10
37304;BME280;23188;51.188;16.374;2023-05-29T19:54:54;100574.85;;;16.78;74.47
37304;BME280;23188;51.188;16.374;2023-05-29T19:58:58;100575.66;;;16.70;73.65
37304;BME280;23188;51.188;16.374;2023-05-29T20:03:02;100579.25;;;16.59;72.94
37304;BME280;23188;51.188;16.374;2023-05-29T20:07:06;100581.95;;;16.51;72.94
37304;BME280;23188;51.188;16.374;2023-05-29T20:11:10;100585.09;;;16.39;73.62
37304;BME280;23188;51.188;16.374;2023-05-29T20:15:14;100588.00;;;16.24;73.70
37304;BME280;23188;51.188;16.374;2023-05-29T20:19:17;100589.94;;;16.07;73.68
37304;BME280;23188;51.188;16.374;2023-05-29T20:23:21;100597.89;;;15.97;73.75
37304;BME280;23188;51.188;16.374;2023-05-29T20:27:26;100604.94;;;15.89;74.32
37304;BME280;23188;51.188;16.374;2023-05-29T20:58:30;100610.48;;;15.91;75.57
37304;BME280;23188;51.188;16.374;2023-05-29T21:02:35;100607.64;;;15.88;74.55
37304;BME280;23188;51.188;16.374;2023-05-29T21:06:38;100606.64;;;15.90;73.79
37304;BME280;23188;51.188;16.374;2023-05-29T21:10:41;100607.77;;;15.89;73.57
37304;BME280;23188;51.188;16.374;2023-05-29T21:14:45;100608.60;;;15.86;73.53
37304;BME280;23188;51.188;16.374;2023-05-29T21:18:48;100609.39;;;15.85;73.35
37304;BME280;23188;51.188;16.374;2023-05-29T21:22:53;100609.88;;;15.87;73.31
37304;BME280;23188;51.188;16.374;2023-05-29T21:26:56;100608.33;;;15.87;73.31
37304;BME280;23188;51.188;16.374;2023-05-29T21:30:59;100611.81;;;15.86;72.94
37304;BME280;23188;51.188;16.374;2023-05-29T21:35:07;100612.20;;;15.85;72.91
37304;BME280;23188;51.188;16.374;2023-05-29T21:39:10;100612.34;;;15.88;73.03
37304;BME280;23188;51.188;16.374;2023-05-29T21:43:14;100616.79;;;15.84;73.56
37304;BME280;23188;51.188;16.374;2023-05-29T21:47:17;100620.09;;;15.80;74.43
37304;BME280;23188;51.188;16.374;2023-05-29T21:51:20;100625.41;;;15.78;74.24
37304;BME280;23188;51.188;16.374;2023-05-29T21:55:31;100630.16;;;15.77;74.00
37304;BME280;23188;51.188;16.374;2023-05-29T22:00:01;100632.95;;;15.78;73.23
37304;BME280;23188;51.188;16.374;2023-05-29T22:04:08;100631.77;;;15.83;72.45
37304;BME280;23188;51.188;16.374;2023-05-29T22:08:41;100633.71;;;15.87;72.06
37304;BME280;23188;51.188;16.374;2023-05-29T22:12:47;100633.44;;;15.86;73.53
37304;BME280;23188;51.188;16.374;2023-05-29T22:21:57;100645.72;;;15.74;75.84
37304;BME280;23188;51.188;16.374;2023-05-29T22:26:04;100638.36;;;15.66;74.36
37304;BME280;23188;51.188;16.374;2023-05-29T22:30:09;100642.75;;;15.65;76.57
37304;BME280;23188;51.188;16.374;2023-05-29T22:34:13;100642.69;;;15.61;76.41
37304;BME280;23188;51.188;16.374;2023-05-29T22:38:16;100644.49;;;15.51;79.23
37304;BME280;23188;51.188;16.374;2023-05-29T22:42:20;100643.23;;;15.44;78.00
37304;BME280;23188;51.188;16.374;2023-05-29T22:46:23;100640.38;;;15.40;79.70
37304;BME280;23188;51.188;16.374;2023-05-29T22:50:27;100638.92;;;15.40;78.36